createdAt,value
2022-10-18T00:00:37.036Z,16.43
2022-10-18T00:03:05.364Z,18.87
2022-10-18T00:05:35.066Z,18.77
2022-10-18T00:08:03.368Z,14.50
2022-10-18T00:10:31.833Z,18.97
2022-10-18T00:13:00.058Z,19.43
2022-10-18T00:15:28.343Z,18.43
2022-10-18T00:17:56.588Z,14.30
2022-10-18T00:20:24.714Z,15.43
2022-10-18T00:22:54.260Z,14.93
2022-10-18T00:25:22.409Z,14.67
2022-10-18T00:27:50.562Z,15.80
2022-10-18T00:30:18.853Z,17.10
2022-10-18T00:32:47.015Z,17.47
2022-10-18T00:35:15.239Z,21.93
2022-10-18T00:37:43.545Z,19.13
2022-10-18T00:40:13.330Z,15.00
2022-10-18T00:42:41.522Z,15.97
2022-10-18T00:45:27.882Z,13.83
2022-10-18T00:48:00.794Z,16.93
2022-10-18T00:50:33.330Z,20.87
2022-10-18T00:53:05.929Z,15.07
2022-10-18T00:55:35.912Z,19.60
2022-10-18T00:58:06.468Z,18.17
2022-10-18T01:00:38.716Z,16.43
2022-10-18T01:03:07.929Z,16.93
2022-10-18T01:05:40.945Z,14.60
2022-10-18T01:08:27.743Z,14.23
2022-10-18T01:11:08.351Z,19.27
2022-10-18T01:13:46.440Z,15.30
2022-10-18T01:16:21.366Z,12.73
2022-10-18T01:18:54.514Z,13.87
2022-10-18T01:21:43.679Z,19.63
2022-10-18T01:24:47.227Z,22.07
2022-10-18T01:27:38.982Z,17.13
2022-10-18T01:30:46.035Z,14.13
2022-10-18T01:33:37.271Z,13.10
2022-10-18T01:36:13.006Z,14.67
2022-10-18T01:38:42.624Z,16.60
2022-10-18T01:41:15.652Z,15.87
2022-10-18T01:43:46.486Z,16.13
2022-10-18T01:46:19.832Z,17.27
2022-10-18T01:48:50.331Z,15.73
2022-10-18T01:51:20.663Z,15.27
2022-10-18T01:53:48.920Z,17.47
2022-10-18T01:56:28.214Z,15.00
2022-10-18T01:59:34.150Z,16.47
2022-10-18T02:02:09.094Z,19.33
2022-10-18T02:04:43.723Z,17.83
2022-10-18T02:07:22.541Z,15.13
2022-10-18T02:10:00.034Z,17.43
2022-10-18T02:12:31.951Z,23.40
2022-10-18T02:15:01.643Z,14.60
2022-10-18T02:17:31.704Z,18.37
2022-10-18T02:20:03.408Z,13.43
2022-10-18T02:22:34.702Z,15.40
2022-10-18T02:25:06.959Z,15.37
2022-10-18T02:27:35.212Z,16.43
2022-10-18T02:30:03.711Z,15.00
2022-10-18T02:32:36.038Z,14.30
2022-10-18T02:35:08.857Z,12.70
2022-10-18T02:37:40.244Z,12.20
2022-10-18T02:40:11.306Z,16.93
2022-10-18T02:42:41.251Z,22.53
2022-10-18T02:45:09.784Z,15.03
2022-10-18T02:47:38.161Z,16.20
2022-10-18T02:50:08.384Z,14.30
2022-10-18T02:52:36.498Z,14.93
2022-10-18T02:55:05.684Z,14.90
2022-10-18T02:57:34.258Z,13.33
2022-10-18T03:00:02.855Z,14.47
2022-10-18T03:02:31.210Z,21.00
2022-10-18T03:04:59.298Z,12.37
2022-10-18T03:07:29.040Z,15.57
2022-10-18T03:09:57.630Z,18.83
2022-10-18T03:12:25.831Z,16.13
2022-10-18T03:14:54.012Z,16.60
2022-10-18T03:17:22.288Z,14.50
2022-10-18T03:19:50.452Z,14.30
2022-10-18T03:22:18.737Z,16.53
2022-10-18T03:24:48.400Z,13.10
2022-10-18T03:27:16.642Z,15.77
2022-10-18T03:29:45.130Z,15.10
2022-10-18T03:32:13.358Z,16.60
2022-10-18T03:34:41.511Z,13.80
2022-10-18T03:37:09.776Z,15.60
2022-10-18T03:39:37.868Z,13.83
2022-10-18T03:42:07.428Z,13.53
2022-10-18T03:44:35.619Z,14.00
2022-10-18T03:47:03.788Z,15.73
2022-10-18T03:52:05.499Z,15.67
2022-10-18T03:54:34.264Z,12.47
2022-10-18T03:57:02.478Z,13.87
2022-10-18T03:59:33.256Z,18.73
2022-10-18T04:02:01.553Z,14.83
2022-10-18T04:04:29.876Z,17.43
2022-10-18T04:06:58.274Z,16.63
2022-10-18T04:09:26.446Z,13.97
2022-10-18T04:11:57.270Z,15.30
2022-10-18T04:14:25.428Z,12.80
2022-10-18T04:16:54.951Z,13.70
2022-10-18T04:19:23.120Z,17.23
2022-10-18T04:21:51.339Z,13.53
2022-10-18T04:24:19.514Z,16.47
2022-10-18T04:26:47.622Z,13.37
2022-10-18T04:29:15.826Z,16.57
2022-10-18T04:31:44.057Z,14.23
2022-10-18T04:34:13.781Z,15.57
2022-10-18T04:36:41.925Z,13.07
2022-10-18T04:39:10.163Z,15.37
2022-10-18T04:41:38.379Z,15.40
2022-10-18T04:44:06.713Z,14.33
2022-10-18T04:46:34.978Z,17.53
2022-10-18T04:49:03.210Z,15.73
2022-10-18T04:51:33.076Z,16.57
2022-10-18T04:54:01.233Z,19.03
2022-10-18T04:56:29.353Z,15.70
2022-10-18T04:58:57.539Z,14.80
2022-10-18T05:01:25.803Z,16.47
2022-10-18T05:03:54.410Z,15.60
2022-10-18T05:06:23.432Z,16.17
2022-10-18T05:08:53.030Z,14.00
2022-10-18T05:11:21.179Z,14.17
2022-10-18T05:13:50.903Z,16.87
2022-10-18T05:16:19.566Z,14.90
2022-10-18T05:18:47.746Z,14.63
2022-10-18T05:21:16.023Z,18.00
2022-10-18T05:23:44.242Z,14.70
2022-10-18T05:26:13.744Z,13.67
2022-10-18T05:28:42.032Z,12.90
2022-10-18T05:31:12.074Z,16.33
2022-10-18T05:33:40.264Z,18.30
2022-10-18T05:36:09.252Z,16.70
2022-10-18T05:38:42.093Z,14.47
2022-10-18T05:41:11.114Z,13.53
2022-10-18T05:43:41.401Z,14.47
2022-10-18T05:46:15.090Z,14.80
2022-10-18T05:48:44.587Z,13.60
2022-10-18T05:51:12.878Z,14.50
2022-10-18T05:53:41.046Z,15.00
2022-10-18T05:56:12.005Z,14.43
2022-10-18T05:58:42.498Z,14.13
2022-10-18T06:01:11.731Z,12.63
2022-10-18T06:03:42.553Z,13.80
2022-10-18T06:06:12.494Z,12.27
2022-10-18T06:08:42.152Z,13.70
2022-10-18T06:11:12.022Z,12.57
2022-10-18T06:13:45.613Z,14.27
2022-10-18T06:16:15.088Z,13.80
2022-10-18T06:18:43.668Z,13.10
2022-10-18T06:21:11.855Z,16.83
2022-10-18T06:23:40.144Z,15.43
2022-10-18T06:26:10.803Z,14.17
2022-10-18T06:28:39.651Z,13.83
2022-10-18T06:31:09.310Z,18.60
2022-10-18T06:33:37.945Z,14.30
2022-10-18T06:36:08.010Z,19.20
2022-10-18T06:38:36.399Z,16.83
2022-10-18T06:41:05.810Z,19.70
2022-10-18T06:43:34.353Z,15.50
2022-10-18T06:46:04.762Z,14.40
2022-10-18T06:48:35.022Z,14.67
2022-10-18T06:51:05.900Z,12.23
2022-10-18T06:53:40.765Z,21.43
2022-10-18T06:56:13.908Z,17.63
2022-10-18T06:58:42.222Z,19.73
2022-10-18T07:01:12.550Z,11.57
2022-10-18T07:03:42.078Z,15.23
2022-10-18T07:06:11.738Z,14.10
2022-10-18T07:08:40.522Z,12.00
2022-10-18T07:11:09.822Z,11.63
2022-10-18T07:13:37.975Z,13.37
2022-10-18T07:16:08.644Z,11.93
2022-10-18T07:18:39.246Z,17.57
2022-10-18T07:21:10.691Z,16.73
2022-10-18T07:23:40.770Z,15.97
2022-10-18T07:26:14.124Z,14.90
2022-10-18T07:28:42.790Z,12.63
2022-10-18T07:31:12.656Z,15.10
2022-10-18T07:33:43.030Z,14.83
2022-10-18T07:36:14.012Z,13.37
2022-10-18T07:38:42.494Z,16.53
2022-10-18T07:41:13.219Z,13.13
2022-10-18T07:43:44.461Z,12.40
2022-10-18T07:46:13.445Z,13.67
2022-10-18T07:48:41.849Z,15.97
2022-10-18T07:51:12.303Z,17.40
2022-10-18T07:53:40.784Z,16.83
2022-10-18T07:56:16.050Z,15.47
2022-10-18T07:58:44.886Z,15.53
2022-10-18T08:01:14.269Z,18.03
2022-10-18T08:03:43.799Z,15.17
2022-10-18T08:06:16.208Z,16.60
2022-10-18T08:08:44.489Z,17.30
2022-10-18T08:11:15.259Z,16.13
2022-10-18T08:13:43.999Z,16.47
2022-10-18T08:16:13.819Z,15.43
2022-10-18T08:18:42.647Z,19.03
2022-10-18T08:21:14.278Z,16.10
2022-10-18T08:23:42.608Z,17.13
2022-10-18T08:26:13.478Z,16.33
2022-10-18T08:28:46.162Z,20.23
2022-10-18T08:31:22.375Z,23.07
2022-10-18T08:33:50.666Z,17.03
2022-10-18T08:36:20.437Z,20.53
2022-10-18T08:38:49.344Z,16.80
2022-10-18T08:41:54.405Z,18.13
2022-10-18T08:44:25.833Z,21.67
2022-10-18T08:46:57.307Z,17.87
2022-10-18T08:49:29.126Z,15.00
2022-10-18T08:52:00.113Z,19.27
2022-10-18T08:54:36.184Z,16.80
2022-10-18T08:57:12.545Z,13.13
2022-10-18T08:59:41.919Z,12.43
2022-10-18T09:02:19.918Z,15.95
2022-10-18T09:04:58.605Z,15.77
2022-10-18T09:07:51.720Z,13.27
2022-10-18T09:10:25.647Z,19.60
2022-10-18T09:13:11.611Z,17.03
2022-10-18T09:15:48.914Z,17.63
2022-10-18T09:18:34.168Z,12.40
2022-10-18T09:21:09.639Z,12.27
2022-10-18T09:23:47.612Z,19.87
2022-10-18T09:26:19.078Z,14.43
2022-10-18T09:29:02.566Z,14.73
2022-10-18T09:31:43.085Z,15.60
2022-10-18T09:34:16.129Z,13.20
2022-10-18T09:36:46.328Z,11.45
2022-10-18T09:39:19.674Z,12.88
2022-10-18T09:41:52.099Z,7.43
2022-10-18T09:44:23.802Z,10.45
2022-10-18T09:46:57.826Z,16.85
2022-10-18T09:49:30.609Z,11.63
2022-10-18T09:52:02.220Z,15.73
2022-10-18T09:54:35.955Z,10.65
2022-10-18T09:57:07.759Z,18.23
2022-10-18T09:59:39.427Z,12.05
2022-10-18T10:02:12.887Z,14.98
2022-10-18T10:04:41.195Z,19.70
2022-10-18T10:07:13.121Z,15.60
2022-10-18T10:09:47.067Z,21.50
2022-10-18T10:12:30.008Z,16.73
2022-10-18T10:15:10.625Z,19.30
2022-10-18T10:17:39.152Z,19.48
2022-10-18T10:20:19.207Z,16.75
2022-10-18T10:22:48.769Z,15.35
2022-10-18T10:25:32.006Z,16.35
2022-10-18T10:28:05.109Z,16.70
2022-10-18T10:30:35.189Z,16.23
2022-10-18T10:33:03.754Z,22.77
2022-10-18T10:35:52.531Z,13.25
2022-10-18T10:38:26.178Z,18.80
2022-10-18T10:40:55.915Z,20.95
2022-10-18T10:43:42.020Z,14.98
2022-10-18T10:46:12.589Z,17.52
2022-10-18T10:48:48.077Z,15.25
2022-10-18T10:51:19.264Z,18.60
2022-10-18T10:53:52.259Z,17.40
2022-10-18T10:56:26.315Z,17.83
2022-10-18T10:58:56.613Z,13.20
2022-10-18T11:01:28.460Z,17.33
2022-10-18T11:03:59.370Z,13.90
2022-10-18T11:06:40.529Z,13.57
2022-10-18T11:09:28.603Z,13.73
2022-10-18T11:12:04.730Z,13.23
2022-10-18T11:14:39.933Z,13.18
2022-10-18T11:17:15.883Z,13.32
2022-10-18T11:20:01.340Z,12.05
2022-10-18T11:22:40.716Z,10.70
2022-10-18T11:25:15.292Z,9.02
2022-10-18T11:27:55.225Z,13.93
2022-10-18T11:30:45.184Z,17.92
2022-10-18T11:33:33.726Z,10.95
2022-10-18T11:36:16.492Z,16.77
2022-10-18T11:38:51.756Z,9.20
2022-10-18T11:41:32.744Z,12.35
2022-10-18T11:44:04.442Z,10.57
2022-10-18T11:46:46.674Z,10.63
2022-10-18T11:49:28.420Z,11.60
2022-10-18T11:52:08.637Z,12.98
2022-10-18T11:54:56.404Z,8.43
2022-10-18T11:57:38.415Z,9.68
2022-10-18T12:00:20.225Z,11.23
2022-10-18T12:03:03.247Z,9.40
2022-10-18T12:05:33.834Z,9.75
2022-10-18T12:08:06.390Z,7.63
2022-10-18T12:10:52.830Z,7.70
2022-10-18T12:13:31.609Z,9.48
2022-10-18T12:16:03.351Z,25.27
2022-10-18T12:18:32.932Z,15.10
2022-10-18T12:21:02.122Z,11.23
2022-10-18T12:23:40.002Z,11.73
2022-10-18T12:26:10.720Z,10.57
2022-10-18T12:28:48.284Z,13.20
2022-10-18T12:31:23.482Z,10.95
2022-10-18T12:33:55.652Z,9.25
2022-10-18T12:36:42.268Z,12.57
2022-10-18T12:39:21.560Z,10.63
2022-10-18T12:41:58.250Z,6.18
2022-10-18T12:44:32.128Z,11.55
2022-10-18T12:47:03.762Z,8.05
2022-10-18T12:49:34.377Z,11.10
2022-10-18T12:52:07.048Z,8.88
2022-10-18T12:54:37.430Z,8.80
2022-10-18T12:57:07.330Z,7.85
2022-10-18T12:59:44.979Z,8.52
2022-10-18T13:02:29.907Z,5.75
2022-10-18T13:05:00.592Z,11.00
2022-10-18T13:07:43.329Z,7.38
2022-10-18T13:10:36.987Z,8.52
2022-10-18T13:13:40.840Z,7.47
2022-10-18T13:16:30.512Z,11.20
2022-10-18T13:19:11.514Z,7.65
2022-10-18T13:21:48.840Z,12.88
2022-10-18T13:24:26.192Z,8.95
2022-10-18T13:27:34.567Z,13.38
2022-10-18T13:30:31.385Z,9.73
2022-10-18T13:33:16.673Z,10.32
2022-10-18T13:35:55.528Z,10.15
2022-10-18T13:38:43.778Z,5.38
2022-10-18T13:41:14.420Z,7.35
2022-10-18T13:43:57.139Z,4.82
2022-10-18T13:46:26.732Z,9.48
2022-10-18T13:48:56.229Z,9.82
2022-10-18T13:51:36.763Z,6.35
2022-10-18T13:54:22.919Z,9.63
2022-10-18T13:57:07.091Z,4.70
2022-10-18T13:59:48.142Z,9.13
2022-10-18T14:02:51.103Z,7.07
2022-10-18T14:05:53.155Z,8.52
2022-10-18T14:08:29.246Z,5.45
2022-10-18T14:11:05.103Z,7.38
2022-10-18T14:13:43.027Z,7.25
2022-10-18T14:16:30.489Z,7.15
2022-10-18T14:19:07.919Z,6.28
2022-10-18T14:21:40.616Z,5.78
2022-10-18T14:24:20.977Z,6.38
2022-10-18T14:26:49.340Z,5.03
2022-10-18T14:29:20.289Z,6.90
2022-10-18T14:31:55.077Z,9.52
2022-10-18T14:34:23.391Z,10.02
2022-10-18T14:36:52.654Z,7.47
2022-10-18T14:39:27.536Z,6.90
2022-10-18T14:41:57.807Z,5.53
2022-10-18T14:44:28.045Z,9.45
2022-10-18T14:47:01.489Z,9.52
2022-10-18T14:49:30.749Z,4.57
2022-10-18T14:52:01.125Z,6.20
2022-10-18T14:54:34.088Z,9.18
2022-10-18T14:57:04.399Z,8.90
2022-10-18T14:59:43.100Z,5.75
2022-10-18T15:02:17.991Z,6.95
2022-10-18T15:04:49.123Z,7.90
2022-10-18T15:07:18.829Z,6.28
2022-10-18T15:09:49.355Z,6.20
2022-10-18T15:12:18.932Z,7.65
2022-10-18T15:14:48.919Z,5.43
2022-10-18T15:17:23.596Z,3.25
2022-10-18T15:20:00.459Z,6.13
2022-10-18T15:22:33.284Z,6.88
2022-10-18T15:25:14.582Z,6.22
2022-10-18T15:27:45.701Z,6.10
2022-10-18T15:30:20.010Z,7.80
2022-10-18T15:32:50.802Z,4.00
2022-10-18T15:35:25.893Z,8.02
2022-10-18T15:37:56.127Z,7.70
2022-10-18T15:40:35.081Z,4.93
2022-10-18T15:43:06.863Z,9.55
2022-10-18T15:45:38.042Z,5.55
2022-10-18T15:48:26.160Z,6.07
2022-10-18T15:50:56.419Z,5.93
2022-10-18T15:53:45.847Z,5.57
2022-10-18T15:56:29.296Z,5.60
2022-10-18T15:58:58.915Z,7.75
2022-10-18T16:01:43.831Z,6.68
2022-10-18T16:04:19.809Z,7.20
2022-10-18T16:06:48.031Z,5.82
2022-10-18T16:09:19.175Z,4.70
2022-10-18T16:11:55.573Z,7.50
2022-10-18T16:14:26.029Z,5.90
2022-10-18T16:17:02.344Z,6.68
2022-10-18T16:19:30.927Z,5.90
2022-10-18T16:22:05.200Z,6.72
2022-10-18T16:24:34.440Z,5.63
2022-10-18T16:27:04.092Z,9.10
2022-10-18T16:29:33.134Z,3.90
2022-10-18T16:32:01.637Z,7.88
2022-10-18T16:34:32.135Z,4.77
2022-10-18T16:37:00.473Z,8.50
2022-10-18T16:39:30.007Z,3.90
2022-10-18T16:41:58.314Z,5.70
2022-10-18T16:44:28.019Z,6.80
2022-10-18T16:46:56.454Z,8.43
2022-10-18T16:49:27.405Z,5.07
2022-10-18T16:51:56.169Z,6.00
2022-10-18T16:54:24.596Z,6.13
2022-10-18T16:56:52.930Z,6.10
2022-10-18T16:59:26.718Z,4.07
2022-10-18T17:01:56.650Z,5.17
2022-10-18T17:04:24.947Z,5.13
2022-10-18T17:06:55.473Z,4.90
2022-10-18T17:09:26.029Z,7.33
2022-10-18T17:11:54.256Z,6.10
2022-10-18T17:14:22.474Z,10.97
2022-10-18T17:16:54.675Z,9.13
2022-10-18T17:19:27.161Z,7.87
2022-10-18T17:21:58.873Z,4.20
2022-10-18T17:24:29.860Z,3.90
2022-10-18T17:26:58.053Z,4.20
2022-10-18T17:29:26.330Z,7.07
2022-10-18T17:31:54.548Z,6.00
2022-10-18T17:34:22.798Z,6.10
2022-10-18T17:36:52.422Z,6.23
2022-10-18T17:39:20.604Z,8.33
2022-10-18T17:41:48.770Z,7.90
2022-10-18T17:44:17.131Z,9.87
2022-10-18T17:46:45.350Z,4.27
2022-10-18T17:49:14.157Z,4.10
2022-10-18T17:51:42.867Z,9.83
2022-10-18T17:54:12.760Z,5.27
2022-10-18T17:56:41.460Z,6.50
2022-10-18T17:59:10.192Z,5.47
2022-10-18T18:01:38.625Z,4.97
2022-10-18T18:04:07.316Z,10.93
2022-10-18T18:06:39.009Z,5.50
2022-10-18T18:09:09.153Z,7.13
2022-10-18T18:11:40.295Z,16.00
2022-10-18T18:14:09.682Z,12.90
2022-10-18T18:16:39.000Z,9.87
2022-10-18T18:19:09.866Z,6.53
2022-10-18T18:21:38.874Z,8.77
2022-10-18T18:24:07.785Z,6.27
2022-10-18T18:26:38.777Z,6.87
2022-10-18T18:29:07.437Z,7.00
2022-10-18T18:31:40.141Z,5.07
2022-10-18T18:34:11.503Z,8.33
2022-10-18T18:36:40.032Z,6.23
2022-10-18T18:39:09.027Z,7.70
2022-10-18T18:41:38.798Z,4.57
2022-10-18T18:44:07.363Z,5.97
2022-10-18T18:46:38.842Z,7.43
2022-10-18T18:49:08.372Z,9.73
2022-10-18T18:51:39.658Z,3.53
2022-10-18T18:54:08.451Z,7.40
2022-10-18T18:56:38.288Z,6.33
2022-10-18T18:59:07.114Z,7.70
2022-10-18T19:01:38.732Z,5.63
2022-10-18T19:04:09.056Z,4.37
2022-10-18T19:06:39.811Z,4.47
2022-10-18T19:09:13.467Z,8.27
2022-10-18T19:11:43.144Z,5.93
2022-10-18T19:14:11.475Z,15.03
2022-10-18T19:16:41.514Z,9.77
2022-10-18T19:19:13.203Z,12.17
2022-10-18T19:21:44.325Z,41.77
2022-10-18T19:24:13.412Z,11.23
2022-10-18T19:26:45.452Z,10.63
2022-10-18T19:29:15.551Z,6.37
2022-10-18T19:31:44.747Z,8.77
2022-10-18T19:34:14.589Z,7.00
2022-10-18T19:36:44.119Z,9.30
2022-10-18T19:39:19.136Z,9.33
2022-10-18T19:41:50.693Z,7.73
2022-10-18T19:44:20.148Z,5.80
2022-10-18T19:46:49.189Z,10.63
2022-10-18T19:49:18.024Z,8.87
2022-10-18T19:51:46.856Z,6.97
2022-10-18T19:54:16.563Z,14.27
2022-10-18T19:56:45.001Z,6.90
2022-10-18T19:59:16.445Z,9.33
2022-10-18T20:01:46.194Z,15.17
2022-10-18T20:04:15.354Z,10.10
2022-10-18T20:06:44.224Z,13.53
2022-10-18T20:09:17.666Z,7.60
2022-10-18T20:11:48.964Z,7.90
2022-10-18T20:14:18.677Z,8.30
2022-10-18T20:16:46.982Z,6.00
2022-10-18T20:19:15.436Z,9.73
2022-10-18T20:21:43.792Z,8.33
2022-10-18T20:24:12.677Z,9.47
2022-10-18T20:26:41.215Z,5.77
2022-10-18T20:29:09.863Z,9.17
2022-10-18T20:31:39.633Z,8.70
2022-10-18T20:34:14.710Z,9.50
2022-10-18T20:36:43.040Z,6.60
2022-10-18T20:39:11.316Z,8.10
2022-10-18T20:41:41.898Z,6.87
2022-10-18T20:44:14.634Z,4.80
2022-10-18T20:46:47.429Z,9.27
2022-10-18T20:49:17.175Z,8.13
2022-10-18T20:51:45.593Z,8.40
2022-10-18T20:54:14.775Z,7.87
2022-10-18T20:56:43.346Z,7.30
2022-10-18T20:59:11.611Z,5.77
2022-10-18T21:01:40.313Z,4.47
2022-10-18T21:04:11.204Z,6.57
2022-10-18T21:06:41.329Z,6.77
2022-10-18T21:09:12.995Z,9.40
2022-10-18T21:11:42.500Z,6.87
2022-10-18T21:14:13.718Z,7.37
2022-10-18T21:16:42.895Z,7.80
2022-10-18T21:19:14.877Z,6.83
2022-10-18T21:21:44.935Z,7.57
2022-10-18T21:24:14.383Z,6.07
2022-10-18T21:26:42.560Z,6.53
2022-10-18T21:29:12.297Z,5.60
2022-10-18T21:31:42.612Z,9.67
2022-10-18T21:34:15.250Z,6.63
2022-10-18T21:36:44.986Z,10.00
2022-10-18T21:39:15.115Z,6.17
2022-10-18T21:41:43.798Z,9.17
2022-10-18T21:44:12.328Z,10.43
2022-10-18T21:46:42.918Z,6.27
2022-10-18T21:49:12.800Z,6.03
2022-10-18T21:51:41.595Z,8.17
2022-10-18T21:54:13.483Z,8.10
2022-10-18T21:56:41.822Z,8.53
2022-10-18T21:59:12.048Z,12.83
2022-10-18T22:01:41.229Z,7.23
2022-10-18T22:04:21.092Z,5.47
2022-10-18T22:06:49.803Z,7.00
2022-10-18T22:09:18.075Z,6.37
2022-10-18T22:11:50.610Z,4.53
2022-10-18T22:14:18.829Z,9.20
2022-10-18T22:16:47.020Z,6.00
2022-10-18T22:19:15.192Z,9.67
2022-10-18T22:21:44.712Z,8.37
2022-10-18T22:24:12.925Z,6.47
2022-10-18T22:26:43.600Z,7.13
2022-10-18T22:29:14.054Z,8.00
2022-10-18T22:31:44.433Z,7.13
2022-10-18T22:34:14.504Z,8.33
2022-10-18T22:36:44.421Z,8.97
2022-10-18T22:39:14.423Z,10.53
2022-10-18T22:41:43.483Z,12.17
2022-10-18T22:44:13.273Z,9.23
2022-10-18T22:46:41.819Z,6.60
2022-10-18T22:49:10.169Z,6.27
2022-10-18T22:51:38.453Z,9.43
2022-10-18T22:54:08.134Z,6.63
2022-10-18T22:56:37.121Z,6.50
2022-10-18T22:59:05.352Z,7.67
2022-10-18T23:01:35.663Z,9.33
2022-10-18T23:04:05.056Z,7.70
2022-10-18T23:06:35.200Z,12.67
2022-10-18T23:09:06.082Z,5.37
2022-10-18T23:11:36.918Z,7.67
2022-10-18T23:14:06.866Z,9.30
2022-10-18T23:16:35.181Z,6.03
2022-10-18T23:19:03.711Z,9.63
2022-10-18T23:21:31.983Z,7.60
2022-10-18T23:24:00.382Z,6.43
2022-10-18T23:26:29.197Z,7.43
2022-10-18T23:28:58.814Z,5.57
2022-10-18T23:31:29.884Z,6.67
2022-10-18T23:34:01.345Z,5.50
2022-10-18T23:36:30.173Z,6.93
2022-10-18T23:38:58.658Z,9.90
2022-10-18T23:41:27.404Z,11.47
2022-10-18T23:43:56.129Z,7.20
2022-10-18T23:46:27.851Z,6.97
2022-10-18T23:48:56.048Z,8.67
2022-10-18T23:51:24.169Z,8.27
2022-10-18T23:53:52.431Z,9.23
2022-10-18T23:56:20.579Z,11.37
2022-10-18T23:58:48.681Z,7.37
